Time;durP1;ratioP1;P1;durP2;ratioP2;P2;SDS_P1;SDS_P2;PMS_P1;PMS_P2;Temp;Humidity;BMP_temperature;BMP_pressure;BME280_temperature;BME280_humidity;BME280_pressure;Samples;Min_cycle;Max_cycle;Signal;HPM_P1;HPM_P2
2021/12/29 00:00:26;;;;;;;70.00;36.53;;;;;;;8.25;77.24;100506.69;5027876;28;20076;-80
2021/12/29 00:02:54;;;;;;;71.80;36.65;;;;;;;8.22;77.22;100495.53;5034684;28;20057;-79
2021/12/29 00:05:21;;;;;;;66.28;35.78;;;;;;;8.23;77.19;100491.97;5034779;28;20088;-76
2021/12/29 00:07:48;;;;;;;67.78;34.97;;;;;;;8.15;77.22;100482.78;5034948;28;20041;-80
2021/12/29 00:10:16;;;;;;;71.13;35.85;;;;;;;8.11;77.35;100472.53;5033940;28;20450;-79
2021/12/29 00:12:47;;;;;;;73.60;36.75;;;;;;;8.11;77.27;100477.75;5035019;28;20111;-78
2021/12/29 00:15:16;;;;;;;69.00;35.90;;;;;;;8.14;77.24;100475.84;5034866;28;20111;-78
2021/12/29 00:17:45;;;;;;;69.97;36.13;;;;;;;8.16;77.15;100489.69;5034806;28;20045;-80
2021/12/29 00:20:16;;;;;;;69.10;35.90;;;;;;;8.15;77.25;100494.97;5034704;28;20050;-79
2021/12/29 00:22:42;;;;;;;67.50;35.15;;;;;;;8.11;77.01;100493.44;5033427;28;20049;-79
2021/12/29 00:25:10;;;;;;;70.38;33.95;;;;;;;8.11;77.03;100488.22;5034591;28;20111;-80
2021/12/29 00:27:37;;;;;;;67.45;35.22;;;;;;;8.09;76.61;100490.91;5033305;28;20557;-80
2021/12/29 00:30:06;;;;;;;67.70;35.78;;;;;;;8.10;76.76;100499.59;5034238;28;20053;-79
2021/12/29 00:32:33;;;;;;;70.80;36.58;;;;;;;8.10;76.63;100491.75;5033842;28;20112;-80
2021/12/29 00:34:59;;;;;;;71.03;37.25;;;;;;;8.10;76.61;100484.78;5033836;28;20050;-80
2021/12/29 00:37:26;;;;;;;70.80;35.40;;;;;;;8.16;76.34;100494.06;5034082;28;20111;-80
2021/12/29 00:39:53;;;;;;;69.90;36.47;;;;;;;8.14;76.31;100501.16;5034115;28;20046;-76
2021/12/29 00:42:20;;;;;;;63.83;33.25;;;;;;;8.16;76.37;100501.91;5032624;28;20045;-79
2021/12/29 00:44:46;;;;;;;66.32;36.97;;;;;;;8.16;76.23;100497.53;5033991;28;20045;-79
2021/12/29 00:47:14;;;;;;;66.40;34.50;;;;;;;8.17;76.19;100496.59;5033915;28;20049;-77
2021/12/29 00:49:42;;;;;;;66.75;34.55;;;;;;;8.19;76.17;100496.53;5034160;28;20046;-80
2021/12/29 00:52:09;;;;;;;67.45;37.00;;;;;;;8.22;76.18;100496.38;5033803;28;20462;-80
2021/12/29 00:54:38;;;;;;;70.20;37.28;;;;;;;8.25;76.18;100503.19;5033794;28;20452;-79
2021/12/29 00:57:05;;;;;;;69.03;35.50;;;;;;;8.26;76.11;100508.34;5033676;28;20099;-80
2021/12/29 00:59:31;;;;;;;65.50;35.63;;;;;;;8.27;76.20;100509.22;5032740;28;20409;-77
2021/12/29 01:01:58;;;;;;;66.85;35.00;;;;;;;8.27;76.12;100496.13;5033764;28;20045;-80
2021/12/29 01:04:25;;;;;;;65.70;35.30;;;;;;;8.28;76.07;100503.06;5033682;28;20501;-80
2021/12/29 01:06:52;;;;;;;66.30;35.25;;;;;;;8.29;76.02;100515.19;5033855;28;20045;-79
2021/12/29 01:09:19;;;;;;;66.50;34.72;;;;;;;8.30;75.95;100516.88;5033876;28;20049;-80
2021/12/29 01:11:47;;;;;;;63.47;32.30;;;;;;;8.27;76.03;100510.03;5032322;28;20056;-77
2021/12/29 01:14:17;;;;;;;63.10;34.20;;;;;;;8.29;76.25;100504.72;5033648;28;20462;-75
2021/12/29 01:16:45;;;;;;;68.10;35.15;;;;;;;8.28;76.16;100493.44;5031836;28;20099;-80
2021/12/29 01:19:20;;;;;;;65.40;34.67;;;;;;;8.30;76.14;100514.28;5033488;28;20103;-80
2021/12/29 01:21:51;;;;;;;68.03;35.35;;;;;;;8.30;76.15;100504.69;5033187;28;20049;-78
2021/12/29 01:24:25;;;;;;;62.20;33.13;;;;;;;8.32;76.18;100515.06;5033557;28;20046;-80
2021/12/29 01:26:52;;;;;;;64.30;33.65;;;;;;;8.32;76.28;100507.22;5033187;28;20483;-75
2021/12/29 01:29:19;;;;;;;69.32;34.53;;;;;;;8.32;75.99;100513.25;5033333;28;20045;-79
2021/12/29 01:31:47;;;;;;;61.92;33.65;;;;;;;8.26;76.23;100513.56;5031775;28;20055;-79
2021/12/29 01:34:15;;;;;;;66.40;34.22;;;;;;;8.22;76.17;100511.22;5032862;28;20057;-79
2021/12/29 01:36:42;;;;;;;64.78;34.78;;;;;;;8.16;76.47;100502.75;5032959;28;20107;-80
2021/12/29 01:39:12;;;;;;;66.35;35.40;;;;;;;8.18;76.47;100500.91;5033047;28;20045;-78
2021/12/29 01:41:39;;;;;;;63.90;34.10;;;;;;;8.16;76.55;100496.66;5033083;28;20045;-80
2021/12/29 01:44:13;;;;;;;68.53;35.42;;;;;;;8.17;76.33;100493.13;5032955;28;20628;-79
2021/12/29 01:46:40;;;;;;;66.97;34.75;;;;;;;8.16;76.04;100496.66;5033066;28;20049;-79
2021/12/29 01:49:08;;;;;;;68.13;33.78;;;;;;;8.16;76.64;100505.38;5031985;28;20046;-80
2021/12/29 01:51:36;;;;;;;73.30;35.83;;;;;;;8.14;76.63;100511.59;5033184;28;20522;-78
2021/12/29 01:54:14;;;;;;;75.80;37.08;;;;;;;8.10;76.84;100507.44;5032878;28;20491;-79
2021/12/29 01:56:44;;;;;;;84.10;40.13;;;;;;;8.09;76.95;100511.00;5032962;28;20970;-80
2021/12/29 01:59:13;;;;;;;86.53;40.53;;;;;;;8.10;77.03;100517.88;5032801;28;20542;-80
2021/12/29 02:01:41;;;;;;;91.07;39.58;;;;;;;8.06;77.04;100521.59;5032860;28;20042;-80
2021/12/29 02:04:08;;;;;;;88.78;40.25;;;;;;;8.06;77.11;100519.78;5031462;28;20057;-76
2021/12/29 02:06:35;;;;;;;83.47;39.80;;;;;;;8.07;77.07;100515.44;5032758;28;20058;-78
2021/12/29 02:09:04;;;;;;;80.53;39.20;;;;;;;8.05;77.56;100510.28;5032656;28;20053;-80
2021/12/29 02:11:33;;;;;;;83.13;38.38;;;;;;;8.07;77.53;100512.81;5032932;28;20096;-80
2021/12/29 02:14:03;;;;;;;74.28;37.05;;;;;;;7.99;77.52;100510.59;5032668;28;20081;-76
2021/12/29 02:16:30;;;;;;;75.72;36.63;;;;;;;8.05;77.49;100505.06;5032412;28;20045;-80
2021/12/29 02:19:00;;;;;;;72.72;36.30;;;;;;;8.00;77.44;100509.69;5031228;28;20057;-78
2021/12/29 02:21:29;;;;;;;75.18;36.90;;;;;;;7.95;77.59;100493.38;5032373;28;20046;-80
2021/12/29 02:26:32;;;;;;;75.63;37.08;;;;;;;7.88;77.89;100490.22;5032367;28;20045;-79
2021/12/29 02:29:01;;;;;;;77.50;37.63;;;;;;;7.84;77.48;100497.34;5031955;28;20677;-76
2021/12/29 02:31:28;;;;;;;73.35;34.63;;;;;;;7.81;78.11;100491.47;5032089;28;20052;-80
2021/12/29 02:33:56;;;;;;;70.43;36.45;;;;;;;7.77;78.18;100493.38;5032114;28;20053;-80
2021/12/29 02:36:23;;;;;;;70.93;35.10;;;;;;;7.75;78.22;100489.13;5032027;28;20080;-80
2021/12/29 02:38:54;;;;;;;76.63;35.72;;;;;;;7.74;78.20;100501.34;5030901;28;20053;-76
2021/12/29 02:41:30;;;;;;;70.55;37.38;;;;;;;7.72;78.48;100494.50;5032281;28;20099;-77
2021/12/29 02:44:04;;;;;;;70.05;34.53;;;;;;;7.78;78.14;100483.75;5031602;28;20593;-77
2021/12/29 02:46:35;;;;;;;71.22;35.38;;;;;;;7.77;78.33;100487.28;5031970;28;20049;-77
2021/12/29 02:49:02;;;;;;;69.00;34.75;;;;;;;7.76;78.42;100490.84;5031879;28;20072;-80
2021/12/29 02:51:32;;;;;;;70.53;35.97;;;;;;;7.76;78.17;100494.28;5031965;28;20045;-80
2021/12/29 02:54:00;;;;;;;67.93;34.33;;;;;;;7.75;78.38;100495.19;5030787;28;20041;-80
2021/12/29 02:56:28;;;;;;;67.38;33.10;;;;;;;7.72;78.51;100495.34;5031881;28;20125;-78
2021/12/29 02:58:57;;;;;;;65.10;33.35;;;;;;;7.73;78.30;100497.03;5030516;28;20100;-79
2021/12/29 03:01:27;;;;;;;67.07;34.50;;;;;;;7.75;78.44;100510.03;5031707;28;20054;-80
2021/12/29 03:03:56;;;;;;;69.28;33.85;;;;;;;7.77;78.28;100497.72;5031649;28;20059;-80
2021/12/29 03:06:23;;;;;;;62.00;31.75;;;;;;;7.72;78.34;100497.09;5031866;28;20064;-79
2021/12/29 03:08:51;;;;;;;68.05;33.35;;;;;;;7.73;78.32;100502.25;5031692;28;20045;-80
2021/12/29 03:11:19;;;;;;;64.55;32.08;;;;;;;7.71;78.45;100506.72;5030673;28;20049;-80
2021/12/29 03:13:46;;;;;;;64.60;33.05;;;;;;;7.73;78.16;100514.47;5031937;28;20053;-80
2021/12/29 03:16:13;;;;;;;56.55;31.27;;;;;;;7.70;78.40;100493.75;5031785;28;20052;-80
2021/12/29 03:18:41;;;;;;;60.65;31.08;;;;;;;7.67;78.51;100492.97;5030152;28;20053;-80
2021/12/29 03:21:10;;;;;;;58.38;30.27;;;;;;;7.60;78.28;100504.63;5031607;28;20049;-80
2021/12/29 03:23:37;;;;;;;54.40;30.73;;;;;;;7.55;78.61;100511.81;5031451;28;20407;-77
2021/12/29 03:26:06;;;;;;;59.47;29.40;;;;;;;7.52;78.82;100498.94;5031459;28;20088;-80
2021/12/29 03:28:34;;;;;;;57.20;30.88;;;;;;;7.52;78.62;100499.75;5030555;28;20080;-79
2021/12/29 03:31:01;;;;;;;51.97;29.35;;;;;;;7.53;78.65;100498.00;5031535;28;20408;-78
2021/12/29 03:33:28;;;;;;;54.67;29.90;;;;;;;7.59;78.09;100500.34;5031271;28;20041;-80
2021/12/29 03:36:02;;;;;;;57.67;32.35;;;;;;;7.58;78.14;100516.06;5033127;28;20049;-80
2021/12/29 03:38:33;;;;;;;59.97;31.05;;;;;;;7.60;78.16;100522.06;5035774;28;20407;-80
2021/12/29 03:41:00;;;;;;;61.35;32.20;;;;;;;7.60;78.50;100525.50;5035246;28;20049;-79
2021/12/29 03:43:28;;;;;;;59.00;31.33;;;;;;;7.65;78.19;100531.34;5035234;28;20447;-80
2021/12/29 03:45:56;;;;;;;59.03;31.10;;;;;;;7.68;78.17;100531.22;5033949;28;20049;-78
2021/12/29 03:48:24;;;;;;;61.35;31.98;;;;;;;7.71;78.13;100532.84;5035380;28;20558;-79
2021/12/29 03:50:51;;;;;;;59.80;32.03;;;;;;;7.64;78.07;100529.69;5034992;28;20054;-78
2021/12/29 03:53:18;;;;;;;59.78;31.73;;;;;;;7.66;78.14;100522.59;5035174;28;20046;-80
2021/12/29 03:55:48;;;;;;;64.88;33.45;;;;;;;7.63;77.91;100521.91;5035018;28;20107;-78
2021/12/29 03:58:17;;;;;;;59.55;32.00;;;;;;;7.62;78.29;100526.28;5034348;28;20381;-79
2021/12/29 04:00:45;;;;;;;66.18;32.83;;;;;;;7.64;78.34;100528.81;5035249;28;20069;-80
2021/12/29 04:03:11;;;;;;;64.72;33.72;;;;;;;7.70;78.20;100538.16;5030127;28;20111;-74
2021/12/29 04:05:38;;;;;;;66.72;32.22;;;;;;;7.68;77.89;100536.44;5031557;28;20723;-80
2021/12/29 04:08:05;;;;;;;62.00;32.10;;;;;;;7.65;78.25;100530.53;5031754;28;20053;-82
2021/12/29 04:10:32;;;;;;;63.80;32.65;;;;;;;7.70;78.02;100532.91;5031361;28;20046;-78
2021/12/29 04:12:59;;;;;;;60.35;31.08;;;;;;;7.64;78.08;100540.13;5031641;28;20053;-77
2021/12/29 04:15:27;;;;;;;58.55;31.17;;;;;;;7.63;78.49;100541.03;5031453;28;20053;-81
2021/12/29 04:18:02;;;;;;;60.65;31.90;;;;;;;7.63;78.17;100546.28;5030646;28;20042;-76
2021/12/29 04:23:19;;;;;;;68.20;31.40;;;;;;;7.63;78.23;100540.19;5031575;28;20300;-80
2021/12/29 04:25:49;;;;;;;52.78;29.60;;;;;;;7.62;78.53;100538.50;5031513;28;20118;-80
2021/12/29 04:28:20;;;;;;;62.75;31.33;;;;;;;7.58;78.10;100537.81;5031374;28;20497;-80
2021/12/29 04:30:48;;;;;;;61.55;31.52;;;;;;;7.60;78.47;100535.94;5031329;28;20057;-78
2021/12/29 04:33:16;;;;;;;55.63;29.30;;;;;;;7.56;78.65;100549.25;5028839;28;20045;-79
2021/12/29 04:35:44;;;;;;;57.03;30.65;;;;;;;7.63;78.32;100546.28;5030921;28;20558;-79
2021/12/29 04:38:11;;;;;;;63.67;32.53;;;;;;;7.64;78.23;100547.97;5030853;28;20066;-80
2021/12/29 04:40:37;;;;;;;63.78;31.00;;;;;;;7.62;78.30;100533.28;5029547;28;20104;-80
2021/12/29 04:43:04;;;;;;;57.22;29.52;;;;;;;7.68;78.10;100536.44;5030853;28;20400;-74
2021/12/29 04:45:32;;;;;;;53.88;29.40;;;;;;;7.70;78.21;100545.97;5031325;28;20053;-76
2021/12/29 04:48:00;;;;;;;59.35;30.60;;;;;;;7.70;77.97;100551.19;5030901;28;20048;-80
2021/12/29 04:50:30;;;;;;;53.85;28.80;;;;;;;7.65;78.46;100546.19;5030108;28;20099;-80
2021/12/29 04:53:00;;;;;;;58.30;31.15;;;;;;;7.71;77.90;100548.50;5030773;28;20127;-77
2021/12/29 04:55:28;;;;;;;53.08;29.83;;;;;;;7.71;78.14;100560.72;5030874;28;20049;-80
2021/12/29 04:57:56;;;;;;;51.95;28.45;;;;;;;7.70;78.21;100562.47;5030841;28;20045;-74
2021/12/29 05:00:26;;;;;;;54.65;29.40;;;;;;;7.74;77.88;100552.75;5030700;28;20133;-80
2021/12/29 05:02:53;;;;;;;55.85;30.15;;;;;;;7.75;77.73;100557.06;5030468;28;20046;-80
2021/12/29 05:10:34;;;;;;;56.50;30.27;;;;;;;7.74;77.98;100556.19;5030356;28;20049;-78
2021/12/29 05:13:01;;;;;;;57.10;30.95;;;;;;;7.76;77.85;100561.38;5030233;28;20188;-80
2021/12/29 05:15:27;;;;;;;56.47;31.30;;;;;;;7.75;77.92;100559.66;5030321;28;20095;-77
2021/12/29 05:17:56;;;;;;;49.65;28.42;;;;;;;7.74;77.90;100553.56;5030046;28;20095;-79
2021/12/29 05:20:23;;;;;;;50.17;28.65;;;;;;;7.70;77.80;100567.72;5029269;28;20041;-80
2021/12/29 05:22:50;;;;;;;62.92;31.30;;;;;;;7.67;77.80;100573.91;5030126;28;20049;-78
2021/12/29 05:25:16;;;;;;;56.80;29.80;;;;;;;7.65;78.09;100567.91;5028844;28;20507;-78
2021/12/29 05:27:43;;;;;;;52.90;30.17;;;;;;;7.62;77.89;100570.69;5030257;28;20049;-80
2021/12/29 05:30:10;;;;;;;55.80;31.40;;;;;;;7.62;78.26;100585.53;5030157;28;20412;-75
2021/12/29 05:32:37;;;;;;;56.38;29.83;;;;;;;7.59;78.09;100586.50;5030000;28;20045;-76
2021/12/29 05:35:04;;;;;;;54.40;30.55;;;;;;;7.59;78.07;100578.69;5031378;28;20099;-80
2021/12/29 05:37:31;;;;;;;60.13;30.17;;;;;;;7.58;78.12;100589.16;5028757;28;20054;-80
2021/12/29 05:39:57;;;;;;;58.25;30.38;;;;;;;7.57;78.07;100592.69;5030168;28;20657;-78
2021/12/29 05:42:24;;;;;;;57.50;29.38;;;;;;;7.60;78.22;100588.19;5029894;28;20060;-75
2021/12/29 05:44:51;;;;;;;59.75;32.13;;;;;;;7.62;78.19;100588.97;5029665;28;20101;-80
2021/12/29 05:47:18;;;;;;;61.75;32.13;;;;;;;7.64;78.17;100591.50;5029869;28;20107;-78
2021/12/29 05:49:44;;;;;;;58.65;31.65;;;;;;;7.68;77.94;100593.03;5029897;28;20045;-79
2021/12/29 05:52:13;;;;;;;54.78;30.70;;;;;;;7.71;77.92;100589.44;5029704;28;20045;-75
2021/12/29 05:54:39;;;;;;;52.70;29.38;;;;;;;7.69;77.89;100602.56;5028650;28;20096;-77
2021/12/29 05:57:06;;;;;;;55.05;29.85;;;;;;;7.70;77.79;100595.59;5031251;28;20057;-75
2021/12/29 05:59:35;;;;;;;52.35;29.02;;;;;;;7.66;78.00;100608.78;5047720;28;20411;-80
2021/12/29 06:02:02;;;;;;;55.55;30.52;;;;;;;7.66;77.82;100626.22;5049438;28;20095;-80
2021/12/29 06:04:30;;;;;;;56.53;29.13;;;;;;;7.64;78.01;100610.66;5049604;28;20095;-75
2021/12/29 06:06:57;;;;;;;55.90;29.83;;;;;;;7.68;77.99;100632.22;5051285;28;20491;-78
2021/12/29 06:09:24;;;;;;;54.92;27.95;;;;;;;7.68;77.82;100635.69;5048308;28;20041;-80
2021/12/29 06:11:51;;;;;;;56.65;30.30;;;;;;;7.70;77.62;100637.38;5030185;28;20107;-76
2021/12/29 06:14:17;;;;;;;56.80;29.75;;;;;;;7.71;77.85;100628.63;5030725;28;20072;-75
2021/12/29 06:16:44;;;;;;;51.78;29.73;;;;;;;7.72;77.77;100625.94;5031190;28;20049;-79
2021/12/29 06:19:11;;;;;;;55.20;28.58;;;;;;;7.71;77.53;100624.25;5030355;28;20051;-75
2021/12/29 06:21:37;;;;;;;56.50;29.30;;;;;;;7.60;78.09;100623.91;5029891;28;20045;-80
2021/12/29 06:24:05;;;;;;;55.78;29.50;;;;;;;7.58;77.94;100631.81;5029451;28;20115;-79
2021/12/29 06:26:31;;;;;;;53.92;29.15;;;;;;;7.55;78.27;100634.53;5027890;28;20049;-79
2021/12/29 06:28:58;;;;;;;50.40;28.13;;;;;;;7.60;78.11;100629.97;5029165;28;20484;-80
2021/12/29 06:31:25;;;;;;;49.38;27.83;;;;;;;7.60;77.87;100626.50;5029529;28;20045;-74
2021/12/29 06:33:52;;;;;;;51.35;28.90;;;;;;;7.56;77.81;100631.03;5028989;28;20147;-77
2021/12/29 06:36:19;;;;;;;47.72;27.98;;;;;;;7.52;78.24;100624.25;5028525;28;20076;-75
2021/12/29 06:38:46;;;;;;;52.17;28.33;;;;;;;7.56;77.72;100610.13;5029146;28;20050;-78
2021/12/29 06:41:12;;;;;;;47.95;25.70;;;;;;;7.58;77.95;100617.91;5046950;28;20049;-76
2021/12/29 06:43:39;;;;;;;46.13;25.98;;;;;;;7.62;77.73;100622.06;5038073;28;20502;-75
2021/12/29 06:46:06;;;;;;;46.35;27.00;;;;;;;7.65;77.59;100630.59;5028802;28;20053;-80
2021/12/29 06:48:32;;;;;;;45.13;25.98;;;;;;;7.66;77.57;100631.47;5028564;28;20046;-76
2021/12/29 06:50:59;;;;;;;44.92;26.23;;;;;;;7.69;77.17;100628.69;5028752;28;20049;-79
2021/12/29 06:53:29;;;;;;;46.45;26.17;;;;;;;7.68;77.23;100627.84;5028577;28;20483;-81
2021/12/29 06:55:56;;;;;;;46.80;27.85;;;;;;;7.71;77.31;100637.31;5028451;28;20045;-71
2021/12/29 06:58:22;;;;;;;50.85;28.90;;;;;;;7.73;77.23;100651.13;5028147;28;20099;-70
2021/12/29 07:00:49;;;;;;;47.67;27.08;;;;;;;7.71;77.37;100639.06;5024164;28;20069;-70
2021/12/29 07:03:16;;;;;;;41.92;26.45;;;;;;;7.71;77.23;100647.75;5027902;28;20049;-70
2021/12/29 07:05:42;;;;;;;44.55;26.35;;;;;;;7.70;77.21;100660.91;5025033;28;20073;-71
2021/12/29 07:08:09;;;;;;;45.88;25.83;;;;;;;7.64;77.42;100670.72;5023713;28;20107;-70
2021/12/29 07:10:36;;;;;;;43.63;24.92;;;;;;;7.64;77.38;100668.09;5026600;28;20080;-72
2021/12/29 07:13:02;;;;;;;44.80;25.65;;;;;;;7.62;77.44;100677.75;5027740;28;20037;-70
2021/12/29 07:15:29;;;;;;;39.40;24.35;;;;;;;7.62;77.28;100680.38;5027728;28;20458;-71
2021/12/29 07:17:55;;;;;;;45.70;26.77;;;;;;;7.64;77.31;100669.84;5027662;28;20127;-71
2021/12/29 07:20:22;;;;;;;44.83;25.48;;;;;;;7.64;77.17;100662.88;5026409;28;20080;-70
2021/12/29 07:22:48;;;;;;;46.60;25.95;;;;;;;7.66;77.06;100668.03;5027557;28;20553;-70
2021/12/29 07:25:15;;;;;;;45.30;25.25;;;;;;;7.68;76.88;100663.56;5027628;28;20054;-71
2021/12/29 07:27:42;;;;;;;41.65;24.70;;;;;;;7.66;77.00;100666.25;5027792;28;20483;-72
2021/12/29 07:30:09;;;;;;;43.35;25.10;;;;;;;7.69;76.89;100678.31;5027385;28;20380;-71
2021/12/29 07:32:35;;;;;;;44.00;25.38;;;;;;;7.70;76.63;100681.78;5028025;28;20053;-71
2021/12/29 07:35:02;;;;;;;49.60;28.30;;;;;;;7.65;76.96;100693.28;5027538;28;20092;-71
2021/12/29 07:37:29;;;;;;;50.10;26.85;;;;;;;7.59;77.01;100693.56;5022751;28;20085;-71
2021/12/29 07:39:56;;;;;;;46.03;25.30;;;;;;;7.54;77.21;100705.97;5021448;28;20098;-69
2021/12/29 07:42:22;;;;;;;41.53;24.83;;;;;;;7.59;76.96;100706.63;5007870;28;20046;-69
2021/12/29 07:44:50;;;;;;;41.95;25.40;;;;;;;7.58;77.13;100709.28;5006774;28;20446;-70
2021/12/29 07:47:17;;;;;;;45.03;26.60;;;;;;;7.49;77.07;100713.16;5007827;28;20408;-69
2021/12/29 07:49:44;;;;;;;45.08;25.40;;;;;;;7.52;77.05;100710.44;5006405;28;20053;-72
2021/12/29 07:52:11;;;;;;;47.80;24.52;;;;;;;7.56;76.89;100704.13;5027033;28;20049;-70
2021/12/29 07:54:37;;;;;;;43.67;24.25;;;;;;;7.48;76.79;100709.72;5044378;28;20328;-71
2021/12/29 07:57:04;;;;;;;42.85;23.67;;;;;;;7.55;76.62;100712.06;5039333;28;20053;-71
2021/12/29 07:59:30;;;;;;;39.50;25.13;;;;;;;7.51;76.73;100708.72;5027389;28;20049;-69
2021/12/29 08:01:58;;;;;;;41.90;23.67;;;;;;;7.50;76.49;100700.06;5027022;28;20049;-69
2021/12/29 08:04:25;;;;;;;40.55;23.52;;;;;;;7.49;76.93;100692.28;5026794;28;20065;-71
2021/12/29 08:06:53;;;;;;;38.00;23.13;;;;;;;7.61;76.36;100696.13;5033152;28;20063;-73
2021/12/29 08:09:19;;;;;;;41.67;23.77;;;;;;;7.70;76.20;100695.69;5026135;28;20190;-71
2021/12/29 08:11:47;;;;;;;42.90;24.15;;;;;;;7.75;76.02;100708.53;5028105;28;20077;-71
2021/12/29 08:14:13;;;;;;;40.35;22.55;;;;;;;7.77;75.94;100720.63;5027951;28;20103;-75
2021/12/29 08:16:40;;;;;;;45.72;24.95;;;;;;;7.76;75.88;100736.38;5028253;28;20103;-75
2021/12/29 08:19:08;;;;;;;47.47;24.75;;;;;;;7.79;75.81;100736.22;5028172;28;20077;-71
2021/12/29 08:21:35;;;;;;;48.40;25.13;;;;;;;7.75;75.75;100747.72;5029417;28;20472;-73
2021/12/29 08:24:02;;;;;;;45.85;25.70;;;;;;;7.75;76.00;100751.19;5031776;28;20041;-74
2021/12/29 08:26:28;;;;;;;50.72;25.70;;;;;;;7.74;75.84;100740.81;5030871;28;20466;-73
2021/12/29 08:28:57;;;;;;;54.65;24.58;;;;;;;7.73;76.03;100736.50;5031431;28;20091;-74
2021/12/29 08:31:25;;;;;;;49.13;25.10;;;;;;;7.77;75.65;100744.13;5031949;28;20046;-73
2021/12/29 08:33:53;;;;;;;47.22;25.35;;;;;;;7.75;75.80;100748.56;5031615;28;20049;-75
2021/12/29 08:36:20;;;;;;;51.40;26.13;;;;;;;7.75;75.66;100747.72;5031685;28;20054;-71
2021/12/29 08:38:47;;;;;;;51.55;26.00;;;;;;;7.73;75.73;100754.78;5031491;28;20049;-70
2021/12/29 08:41:14;;;;;;;48.50;26.10;;;;;;;7.78;75.99;100758.91;5031645;28;20100;-75
2021/12/29 08:43:41;;;;;;;50.78;27.05;;;;;;;7.86;75.94;100758.53;5030538;28;20053;-72
2021/12/29 08:46:08;;;;;;;48.65;27.20;;;;;;;7.81;75.95;100765.75;5031588;28;20507;-70
2021/12/29 08:48:37;;;;;;;51.00;27.40;;;;;;;7.80;75.66;100764.03;5031773;28;20055;-75
2021/12/29 08:51:04;;;;;;;54.88;27.73;;;;;;;7.81;76.15;100755.28;5031530;28;20052;-75
2021/12/29 08:53:30;;;;;;;55.22;28.85;;;;;;;7.81;76.01;100761.34;5031118;28;20480;-74
2021/12/29 08:55:57;;;;;;;54.78;28.90;;;;;;;7.81;75.92;100763.97;5031596;28;20103;-74
2021/12/29 08:58:26;;;;;;;56.30;28.85;;;;;;;7.76;76.04;100771.16;5031452;28;20084;-75
2021/12/29 09:00:55;;;;;;;56.80;28.45;;;;;;;7.75;76.02;100774.69;5030198;28;20049;-69
2021/12/29 09:03:22;;;;;;;55.38;28.40;;;;;;;7.72;76.09;100780.06;5031006;28;20051;-71
2021/12/29 09:05:49;;;;;;;54.97;28.70;;;;;;;7.76;76.17;100780.78;5031035;28;20050;-68
2021/12/29 09:08:16;;;;;;;53.80;27.17;;;;;;;7.78;76.03;100773.69;5031339;28;20049;-70
2021/12/29 09:10:44;;;;;;;50.17;26.73;;;;;;;7.85;75.75;100772.53;5031022;28;20492;-71
2021/12/29 09:13:12;;;;;;;51.40;27.27;;;;;;;7.84;75.80;100778.66;5030502;28;20045;-69
2021/12/29 09:15:39;;;;;;;51.00;27.15;;;;;;;7.91;75.78;100780.09;5030811;28;20099;-68
2021/12/29 09:18:06;;;;;;;56.13;28.45;;;;;;;7.94;75.56;100779.09;5027131;28;20045;-68
2021/12/29 09:20:35;;;;;;;53.97;27.55;;;;;;;7.99;75.44;100779.75;5019314;28;20069;-70
2021/12/29 09:23:07;;;;;;;53.78;27.77;;;;;;;8.09;75.25;100788.03;5030724;28;20099;-70
2021/12/29 09:25:36;;;;;;;52.17;27.95;;;;;;;8.14;75.08;100783.44;5026859;28;20050;-70
2021/12/29 09:28:04;;;;;;;50.58;26.95;;;;;;;8.16;75.03;100782.44;5030893;28;20096;-71
2021/12/29 09:30:33;;;;;;;57.83;28.40;;;;;;;8.20;75.02;100780.50;5030223;28;20104;-71
2021/12/29 09:33:05;;;;;;;53.85;28.83;;;;;;;8.18;74.89;100783.19;5029052;28;20050;-70
2021/12/29 09:35:31;;;;;;;49.65;28.52;;;;;;;8.18;75.05;100784.97;5029941;28;20045;-70
2021/12/29 09:38:02;;;;;;;50.80;28.05;;;;;;;8.17;74.97;100801.56;5030018;28;20123;-68
2021/12/29 09:40:29;;;;;;;53.05;28.65;;;;;;;8.16;75.07;100778.97;5030471;28;20045;-70
2021/12/29 09:42:56;;;;;;;50.47;28.05;;;;;;;8.20;74.98;100784.91;5029319;28;20496;-70
2021/12/29 09:45:23;;;;;;;57.72;31.10;;;;;;;8.25;74.91;100778.56;5030015;28;20049;-69
2021/12/29 09:47:50;;;;;;;57.13;29.48;;;;;;;8.27;74.92;100788.94;5029927;28;20045;-70
2021/12/29 09:50:19;;;;;;;56.50;29.48;;;;;;;8.24;74.80;100784.69;5030158;28;20053;-68
2021/12/29 09:52:46;;;;;;;54.97;29.45;;;;;;;8.21;74.81;100792.66;5030208;28;20052;-70
2021/12/29 09:55:16;;;;;;;52.50;29.35;;;;;;;8.25;74.88;100793.38;5043483;28;20449;-68
2021/12/29 09:57:46;;;;;;;58.15;32.20;;;;;;;8.15;74.91;100791.19;5044074;28;20041;-68
2021/12/29 10:00:28;;;;;;;59.60;32.40;;;;;;;8.15;75.03;100804.25;5035293;28;20088;-68
2021/12/29 10:02:57;;;;;;;51.92;29.83;;;;;;;8.17;75.07;100804.19;5029728;28;20052;-69
2021/12/29 10:05:27;;;;;;;60.40;34.40;;;;;;;8.15;75.10;100793.81;5030088;28;20054;-69
2021/12/29 10:08:11;;;;;;;53.58;29.30;;;;;;;8.15;74.85;100782.47;5029087;28;20119;-68
2021/12/29 10:10:42;;;;;;;51.25;27.75;;;;;;;8.25;74.79;100783.78;5029958;28;20118;-70
2021/12/29 10:13:09;;;;;;;53.58;27.63;;;;;;;8.32;74.41;100790.41;5029527;28;20068;-69
2021/12/29 10:15:43;;;;;;;52.58;28.38;;;;;;;8.32;74.36;100795.63;5029719;28;20050;-70
2021/12/29 10:18:16;;;;;;;55.60;28.83;;;;;;;8.34;74.49;100788.56;5029599;28;20058;-69
2021/12/29 10:20:56;;;;;;;49.25;27.67;;;;;;;8.41;74.26;100788.28;5029802;28;20045;-69
2021/12/29 10:23:27;;;;;;;54.30;28.73;;;;;;;8.43;74.36;100796.91;5027795;28;20124;-68
2021/12/29 10:26:03;;;;;;;55.42;28.65;;;;;;;8.41;74.46;100786.50;5033702;28;20095;-66
2021/12/29 10:28:32;;;;;;;56.17;28.02;;;;;;;8.54;73.87;100794.66;5033664;28;20092;-70
2021/12/29 10:31:00;;;;;;;51.13;28.55;;;;;;;8.48;74.18;100795.81;5029442;28;20470;-70
2021/12/29 10:33:37;;;;;;;59.90;29.70;;;;;;;8.50;74.23;100793.13;5029426;28;20075;-70
2021/12/29 10:36:26;;;;;;;59.15;30.35;;;;;;;8.45;74.14;100793.28;5029166;28;20045;-68
2021/12/29 10:38:56;;;;;;;54.40;28.52;;;;;;;8.43;74.17;100792.53;5029566;28;20049;-70
2021/12/29 10:41:28;;;;;;;56.05;30.95;;;;;;;8.40;74.39;100786.59;5028494;28;20053;-69
2021/12/29 10:43:59;;;;;;;58.28;28.88;;;;;;;8.38;74.18;100791.03;5029162;28;20514;-69
2021/12/29 10:46:27;;;;;;;49.08;28.17;;;;;;;8.41;74.15;100798.75;5029349;28;20049;-68
2021/12/29 10:48:55;;;;;;;54.53;29.10;;;;;;;8.41;74.11;100798.75;5029328;28;20045;-69
2021/12/29 10:51:28;;;;;;;50.83;28.00;;;;;;;8.34;74.31;100796.41;5029046;28;20053;-69
2021/12/29 10:54:04;;;;;;;56.92;28.13;;;;;;;8.31;74.33;100791.31;5029063;28;20100;-69
2021/12/29 10:56:32;;;;;;;55.25;29.23;;;;;;;8.28;74.42;100790.63;5027959;28;20046;-69
2021/12/29 10:58:59;;;;;;;53.58;29.08;;;;;;;8.32;74.27;100792.19;5028928;28;20180;-69
2021/12/29 11:01:25;;;;;;;55.50;28.73;;;;;;;8.36;74.08;100790.28;5028955;28;20049;-69
2021/12/29 11:03:58;;;;;;;50.40;28.35;;;;;;;8.40;73.96;100791.81;5028763;28;20507;-68
2021/12/29 11:06:26;;;;;;;52.33;28.42;;;;;;;8.41;73.86;100799.59;5028975;28;20495;-69
2021/12/29 11:09:01;;;;;;;51.20;27.83;;;;;;;8.52;73.61;100796.50;5028881;28;20487;-69
2021/12/29 11:11:34;;;;;;;51.50;26.85;;;;;;;8.58;73.32;100798.84;5029133;28;20045;-69
2021/12/29 11:14:21;;;;;;;48.55;26.80;;;;;;;8.59;73.07;100799.69;5027794;28;20119;-70
2021/12/29 11:16:59;;;;;;;52.05;28.05;;;;;;;8.63;72.93;100793.38;5031692;28;20048;-70
2021/12/29 11:19:26;;;;;;;50.13;25.90;;;;;;;8.62;72.81;100784.69;5045917;28;20091;-70
2021/12/29 11:22:08;;;;;;;47.97;26.25;;;;;;;8.61;72.81;100787.38;5048508;28;20091;-69
2021/12/29 11:24:35;;;;;;;54.13;27.88;;;;;;;8.62;72.82;100792.53;5048390;28;20106;-69
2021/12/29 11:27:11;;;;;;;54.05;29.73;;;;;;;8.67;72.86;100789.69;5048364;28;20099;-70
2021/12/29 11:29:51;;;;;;;48.45;27.45;;;;;;;8.61;72.68;100793.44;5037586;28;20041;-68
2021/12/29 11:32:29;;;;;;;52.50;27.33;;;;;;;8.59;72.79;100792.66;5028810;28;20053;-68